createdAt,value
2019-02-06T00:00:10.724Z,36
2019-02-06T00:00:28.232Z,35
2019-02-06T00:00:48.245Z,33
2019-02-06T00:00:58.299Z,34
2019-02-06T00:01:08.332Z,37
2019-02-06T00:01:19.169Z,38
2019-02-06T00:01:29.272Z,34
2019-02-06T00:01:49.459Z,35
2019-02-06T00:01:59.338Z,37
2019-02-06T00:02:19.421Z,36
2019-02-06T00:02:38.586Z,35
2019-02-06T00:03:00.706Z,34
2019-02-06T00:03:18.740Z,35
2019-02-06T00:03:28.759Z,36
2019-02-06T00:03:59.705Z,35
2019-02-06T00:04:09.744Z,36
2019-02-06T00:04:19.694Z,38
2019-02-06T00:04:28.930Z,37
2019-02-06T00:04:39.807Z,38
2019-02-06T00:04:49.841Z,37
2019-02-06T00:04:59.871Z,35
2019-02-06T00:05:19.890Z,41
2019-02-06T00:05:29.949Z,40
2019-02-06T00:05:40.621Z,38
2019-02-06T00:05:49.994Z,36
2019-02-06T00:05:59.189Z,35
2019-02-06T00:06:20.046Z,34
2019-02-06T00:06:30.212Z,36
2019-02-06T00:06:40.162Z,38
2019-02-06T00:07:00.331Z,35
2019-02-06T00:07:10.267Z,39
2019-02-06T00:07:20.216Z,36
2019-02-06T00:07:31.512Z,35
2019-02-06T00:07:39.470Z,36
2019-02-06T00:07:50.620Z,35
2019-02-06T00:08:01.272Z,36
2019-02-06T00:08:10.438Z,35
2019-02-06T00:08:20.071Z,36
2019-02-06T00:08:30.775Z,35
2019-02-06T00:08:49.621Z,33
2019-02-06T00:09:20.630Z,34
2019-02-06T00:09:40.696Z,35
2019-02-06T00:10:09.889Z,36
2019-02-06T00:10:29.966Z,38
2019-02-06T00:10:39.978Z,37
2019-02-06T00:10:50.821Z,35
2019-02-06T00:11:01.253Z,39
2019-02-06T00:11:10.085Z,36
2019-02-06T00:11:20.041Z,35
2019-02-06T00:11:51.136Z,37
2019-02-06T00:12:04.406Z,35
2019-02-06T00:12:12.616Z,33
2019-02-06T00:12:21.160Z,36
2019-02-06T00:13:01.294Z,34
2019-02-06T00:13:10.430Z,35
2019-02-06T00:13:20.426Z,33
2019-02-06T00:13:31.528Z,35
2019-02-06T00:13:41.399Z,38
2019-02-06T00:13:51.427Z,35
2019-02-06T00:14:20.581Z,36
2019-02-06T00:14:30.688Z,35
2019-02-06T00:14:40.726Z,36
2019-02-06T00:15:00.781Z,35
2019-02-06T00:15:31.779Z,36
2019-02-06T00:15:40.879Z,38
2019-02-06T00:15:50.996Z,37
2019-02-06T00:16:01.843Z,36
2019-02-06T00:16:12.003Z,38
2019-02-06T00:16:31.017Z,37
2019-02-06T00:16:41.083Z,34
2019-02-06T00:16:52.363Z,36
2019-02-06T00:17:11.221Z,38
2019-02-06T00:17:22.100Z,37
2019-02-06T00:17:32.166Z,36
2019-02-06T00:17:42.176Z,35
2019-02-06T00:17:52.159Z,34
2019-02-06T00:18:02.471Z,35
2019-02-06T00:18:21.330Z,36
2019-02-06T00:18:31.428Z,35
2019-02-06T00:18:41.478Z,36
2019-02-06T00:18:52.349Z,35
2019-02-06T00:19:32.521Z,36
2019-02-06T00:20:02.550Z,39
2019-02-06T00:20:11.718Z,38
2019-02-06T00:20:23.774Z,36
2019-02-06T00:20:42.652Z,35
2019-02-06T00:20:51.793Z,34
2019-02-06T00:21:02.738Z,35
2019-02-06T00:21:11.898Z,37
2019-02-06T00:21:23.620Z,36
2019-02-06T00:21:33.661Z,38
2019-02-06T00:21:41.986Z,35
2019-02-06T00:21:51.995Z,34
2019-02-06T00:22:22.074Z,38
2019-02-06T00:22:43.815Z,34
2019-02-06T00:22:52.139Z,35
2019-02-06T00:23:03.892Z,36
2019-02-06T00:23:13.120Z,34
2019-02-06T00:23:24.068Z,32
2019-02-06T00:23:33.169Z,33
2019-02-06T00:23:42.341Z,34
2019-02-06T00:23:52.314Z,32
2019-02-06T00:24:13.882Z,36
2019-02-06T00:24:24.464Z,35
2019-02-06T00:24:33.314Z,34
2019-02-06T00:25:13.457Z,36
2019-02-06T00:25:22.608Z,35
2019-02-06T00:25:33.572Z,34
2019-02-06T00:25:52.668Z,35
2019-02-06T00:26:05.106Z,34
2019-02-06T00:26:13.768Z,33
2019-02-06T00:26:22.768Z,35
2019-02-06T00:26:43.709Z,36
2019-02-06T00:26:54.561Z,34
2019-02-06T00:27:23.804Z,35
2019-02-06T00:27:33.889Z,36
2019-02-06T00:27:54.786Z,34
2019-02-06T00:28:04.087Z,33
2019-02-06T00:28:14.022Z,34
2019-02-06T00:28:43.245Z,32
2019-02-06T00:28:53.207Z,31
2019-02-06T00:29:04.173Z,33
2019-02-06T00:29:23.297Z,34
2019-02-06T00:29:33.368Z,35
2019-02-06T00:30:53.557Z,37
2019-02-06T00:31:04.500Z,35
2019-02-06T00:31:14.530Z,36
2019-02-06T00:31:25.371Z,35
2019-02-06T00:31:36.427Z,34
2019-02-06T00:32:04.689Z,38
2019-02-06T00:32:13.838Z,37
2019-02-06T00:32:24.726Z,33
2019-02-06T00:32:35.818Z,35
2019-02-06T00:32:44.818Z,32
2019-02-06T00:32:53.969Z,34
2019-02-06T00:33:04.878Z,37
2019-02-06T00:33:14.029Z,35
2019-02-06T00:33:24.003Z,32
2019-02-06T00:33:34.950Z,33
2019-02-06T00:33:44.103Z,34
2019-02-06T00:34:05.433Z,32
2019-02-06T00:34:24.188Z,33
2019-02-06T00:34:45.131Z,35
2019-02-06T00:34:54.263Z,34
2019-02-06T00:35:04.334Z,35
2019-02-06T00:35:26.426Z,33
2019-02-06T00:35:28.224Z,38
2019-02-06T00:35:35.341Z,36
2019-02-06T00:35:46.140Z,35
2019-02-06T00:35:56.176Z,38
2019-02-06T00:36:04.532Z,37
2019-02-06T00:36:14.589Z,36
2019-02-06T00:36:25.692Z,35
2019-02-06T00:36:35.480Z,36
2019-02-06T00:36:45.526Z,35
2019-02-06T00:37:05.592Z,34
2019-02-06T00:37:17.257Z,32
2019-02-06T00:37:26.469Z,31
2019-02-06T00:37:35.722Z,32
2019-02-06T00:38:14.920Z,35
2019-02-06T00:39:15.977Z,36
2019-02-06T00:39:25.089Z,33
2019-02-06T00:39:36.008Z,32
2019-02-06T00:39:46.057Z,34
2019-02-06T00:39:55.162Z,33
2019-02-06T00:40:26.131Z,34
2019-02-06T00:40:45.345Z,33
2019-02-06T00:40:55.341Z,34
2019-02-06T00:41:06.287Z,33
2019-02-06T00:41:15.451Z,32
2019-02-06T00:41:26.267Z,33
2019-02-06T00:41:35.488Z,32
2019-02-06T00:41:46.426Z,33
2019-02-06T00:41:56.359Z,31
2019-02-06T00:42:05.591Z,33
2019-02-06T00:42:16.618Z,35
2019-02-06T00:42:26.551Z,33
2019-02-06T00:42:47.446Z,37
2019-02-06T00:42:55.677Z,36
2019-02-06T00:43:06.632Z,33
2019-02-06T00:43:15.777Z,34
2019-02-06T00:43:25.771Z,35
2019-02-06T00:43:36.639Z,33
2019-02-06T00:43:46.744Z,32
2019-02-06T00:43:56.730Z,37
2019-02-06T00:44:05.921Z,36
2019-02-06T00:44:28.169Z,34
2019-02-06T00:44:36.019Z,33
2019-02-06T00:44:46.937Z,36
2019-02-06T00:45:06.128Z,35
2019-02-06T00:45:37.284Z,34
2019-02-06T00:45:47.885Z,36
2019-02-06T00:45:58.800Z,34
2019-02-06T00:46:06.305Z,32
2019-02-06T00:46:17.200Z,33
2019-02-06T00:46:27.181Z,48
2019-02-06T00:46:37.229Z,45
2019-02-06T00:46:48.191Z,42
2019-02-06T00:46:56.439Z,41
2019-02-06T00:47:17.468Z,44
2019-02-06T00:47:28.245Z,42
2019-02-06T00:47:38.634Z,41
2019-02-06T00:47:48.364Z,37
2019-02-06T00:47:57.621Z,35
2019-02-06T00:48:06.663Z,34
2019-02-06T00:48:16.697Z,36
2019-02-06T00:48:26.686Z,35
2019-02-06T00:48:36.746Z,34
2019-02-06T00:48:47.656Z,32
2019-02-06T00:48:58.901Z,33
2019-02-06T00:49:49.527Z,31
2019-02-06T00:49:56.953Z,30
2019-02-06T00:50:08.266Z,32
2019-02-06T00:50:17.114Z,34
2019-02-06T00:50:27.908Z,32
2019-02-06T00:50:38.135Z,30
2019-02-06T00:50:48.860Z,31
2019-02-06T00:50:57.971Z,36
2019-02-06T00:51:08.081Z,32
2019-02-06T00:51:28.060Z,31
2019-02-06T00:51:37.278Z,34
2019-02-06T00:51:48.175Z,36
2019-02-06T00:51:59.040Z,33
2019-02-06T00:52:28.645Z,34
2019-02-06T00:52:39.202Z,35
2019-02-06T00:52:47.434Z,33
2019-02-06T00:52:58.473Z,32
2019-02-06T00:53:08.378Z,33
2019-02-06T00:53:29.370Z,30
2019-02-06T00:53:38.842Z,32
2019-02-06T00:53:47.667Z,36
2019-02-06T00:53:59.369Z,35
2019-02-06T00:54:10.296Z,32
2019-02-06T00:54:28.635Z,33
2019-02-06T00:54:59.548Z,32
2019-02-06T00:55:08.686Z,33
2019-02-06T00:55:28.749Z,35
2019-02-06T00:55:48.822Z,34
2019-02-06T00:55:58.016Z,33
2019-02-06T00:56:18.087Z,32
2019-02-06T00:56:28.068Z,33
2019-02-06T00:56:49.068Z,35
2019-02-06T00:57:08.237Z,34
2019-02-06T00:57:19.147Z,35
2019-02-06T00:57:28.285Z,34
2019-02-06T00:57:38.358Z,35
2019-02-06T00:57:49.269Z,33
2019-02-06T00:57:58.360Z,34
2019-02-06T00:58:09.317Z,32
2019-02-06T00:58:18.466Z,33
2019-02-06T00:58:30.326Z,31
2019-02-06T00:58:38.518Z,33
2019-02-06T00:58:59.405Z,32
2019-02-06T00:59:18.648Z,31
2019-02-06T00:59:29.505Z,33
2019-02-06T00:59:38.728Z,32
2019-02-06T00:59:58.709Z,33
2019-02-06T01:00:08.766Z,34
2019-02-06T01:00:18.909Z,33
2019-02-06T01:01:10.710Z,32
2019-02-06T01:01:29.875Z,33
2019-02-06T01:01:40.243Z,35
2019-02-06T01:02:00.628Z,34
2019-02-06T01:02:10.023Z,33
2019-02-06T01:02:20.098Z,32
2019-02-06T01:02:30.118Z,34
2019-02-06T01:02:49.230Z,35
2019-02-06T01:02:59.320Z,33
2019-02-06T01:03:10.450Z,32
2019-02-06T01:03:31.147Z,33
2019-02-06T01:03:40.402Z,35
2019-02-06T01:04:10.432Z,33
2019-02-06T01:04:32.382Z,35
2019-02-06T01:04:49.585Z,33
2019-02-06T01:05:00.531Z,30
2019-02-06T01:05:12.280Z,33
2019-02-06T01:05:21.406Z,34
2019-02-06T01:05:39.317Z,32
2019-02-06T01:05:42.015Z,33
2019-02-06T01:05:51.527Z,32
2019-02-06T01:06:00.678Z,28
2019-02-06T01:06:10.712Z,29
2019-02-06T01:06:20.709Z,30
2019-02-06T01:06:30.813Z,32
2019-02-06T01:06:40.805Z,33
2019-02-06T01:06:50.805Z,32
2019-02-06T01:07:10.292Z,35
2019-02-06T01:07:20.009Z,33
2019-02-06T01:07:30.943Z,31
2019-02-06T01:07:40.979Z,35
2019-02-06T01:07:50.110Z,34
2019-02-06T01:08:01.072Z,32
2019-02-06T01:08:10.290Z,33
2019-02-06T01:08:21.033Z,36
2019-02-06T01:08:32.379Z,38
2019-02-06T01:08:41.198Z,37
2019-02-06T01:08:51.182Z,39
2019-02-06T01:09:10.428Z,41
2019-02-06T01:09:31.343Z,43
2019-02-06T01:09:41.823Z,40
2019-02-06T01:09:51.336Z,36
2019-02-06T01:10:01.432Z,37
2019-02-06T01:10:11.433Z,40
2019-02-06T01:10:21.440Z,38
2019-02-06T01:10:33.215Z,34
2019-02-06T01:10:43.542Z,33
2019-02-06T01:10:50.922Z,31
2019-02-06T01:11:01.610Z,34
2019-02-06T01:11:31.706Z,33
2019-02-06T01:11:51.697Z,32
2019-02-06T01:12:02.152Z,34
2019-02-06T01:12:10.967Z,33
2019-02-06T01:12:23.539Z,35
2019-02-06T01:12:41.041Z,34
2019-02-06T01:12:51.932Z,35
2019-02-06T01:13:01.991Z,32
2019-02-06T01:13:12.278Z,33
2019-02-06T01:13:32.072Z,34
2019-02-06T01:13:51.219Z,35
2019-02-06T01:14:01.373Z,34
2019-02-06T01:14:22.459Z,32
2019-02-06T01:14:51.627Z,35
2019-02-06T01:15:12.369Z,33
2019-02-06T01:15:22.413Z,32
2019-02-06T01:15:32.696Z,33
2019-02-06T01:15:51.550Z,36
2019-02-06T01:16:22.564Z,37
2019-02-06T01:16:31.689Z,36
2019-02-06T01:16:41.728Z,35
2019-02-06T01:17:02.648Z,36
2019-02-06T01:17:25.650Z,37
2019-02-06T01:17:42.755Z,38
2019-02-06T01:17:54.524Z,36
2019-02-06T01:18:03.675Z,39
2019-02-06T01:18:12.875Z,38
2019-02-06T01:18:23.684Z,37
2019-02-06T01:18:33.758Z,36
2019-02-06T01:18:42.993Z,38
2019-02-06T01:18:52.050Z,37
2019-02-06T01:19:04.938Z,36
2019-02-06T01:19:23.322Z,33
2019-02-06T01:19:33.139Z,34
2019-02-06T01:19:53.128Z,33
2019-02-06T01:20:03.582Z,32
2019-02-06T01:20:13.281Z,30
2019-02-06T01:20:33.267Z,31
2019-02-06T01:20:43.293Z,33
2019-02-06T01:20:54.123Z,34
2019-02-06T01:21:05.053Z,32
2019-02-06T01:21:12.527Z,33
2019-02-06T01:21:23.347Z,34
2019-02-06T01:21:32.558Z,33
2019-02-06T01:21:52.598Z,32
2019-02-06T01:22:02.643Z,33
2019-02-06T01:22:12.725Z,32
2019-02-06T01:22:22.737Z,35
2019-02-06T01:22:32.774Z,33
2019-02-06T01:22:53.915Z,35
2019-02-06T01:23:18.016Z,33
2019-02-06T01:23:22.889Z,35
2019-02-06T01:23:35.294Z,32
2019-02-06T01:23:44.708Z,35
2019-02-06T01:24:14.838Z,32
2019-02-06T01:24:25.675Z,31
2019-02-06T01:24:34.953Z,33
2019-02-06T01:24:44.383Z,32
2019-02-06T01:24:54.006Z,31
2019-02-06T01:25:04.965Z,37
2019-02-06T01:25:24.138Z,39
2019-02-06T01:25:35.923Z,33
2019-02-06T01:25:45.870Z,31
2019-02-06T01:25:54.528Z,32
2019-02-06T01:26:04.513Z,39
2019-02-06T01:26:15.382Z,38
2019-02-06T01:26:25.201Z,36
2019-02-06T01:26:54.359Z,34
2019-02-06T01:27:04.692Z,36
2019-02-06T01:27:23.845Z,38
2019-02-06T01:27:33.651Z,39
2019-02-06T01:27:43.728Z,37
2019-02-06T01:27:53.702Z,36
2019-02-06T01:28:04.641Z,34
2019-02-06T01:28:13.791Z,33
2019-02-06T01:28:24.639Z,35
2019-02-06T01:28:34.684Z,36
2019-02-06T01:28:44.726Z,35
2019-02-06T01:28:54.708Z,36
2019-02-06T01:29:13.959Z,35
2019-02-06T01:29:44.946Z,38
2019-02-06T01:30:04.106Z,39
2019-02-06T01:30:15.333Z,36
2019-02-06T01:30:25.066Z,35
2019-02-06T01:30:45.964Z,33
2019-02-06T01:30:54.249Z,35
2019-02-06T01:31:04.264Z,36
2019-02-06T01:31:15.177Z,34
2019-02-06T01:31:26.909Z,35
2019-02-06T01:31:35.214Z,38
2019-02-06T01:31:45.258Z,36
2019-02-06T01:32:14.486Z,38
2019-02-06T01:32:24.517Z,36
2019-02-06T01:32:35.990Z,35
2019-02-06T01:32:54.600Z,33
2019-02-06T01:33:04.587Z,32
2019-02-06T01:33:34.684Z,31
2019-02-06T01:33:45.640Z,35
2019-02-06T01:33:58.334Z,33
2019-02-06T01:34:06.825Z,35
2019-02-06T01:34:34.843Z,34
2019-02-06T01:34:45.788Z,32
2019-02-06T01:34:56.967Z,33
2019-02-06T01:35:06.144Z,32
2019-02-06T01:35:25.911Z,35
2019-02-06T01:35:50.904Z,36
2019-02-06T01:35:55.998Z,37
2019-02-06T01:36:05.984Z,38
2019-02-06T01:36:26.085Z,36
2019-02-06T01:36:37.026Z,40
2019-02-06T01:36:46.174Z,42
2019-02-06T01:36:55.312Z,41
2019-02-06T01:37:06.140Z,38
2019-02-06T01:37:26.675Z,44
2019-02-06T01:37:36.240Z,42
2019-02-06T01:37:47.193Z,39
2019-02-06T01:37:56.336Z,41
2019-02-06T01:38:06.339Z,40
2019-02-06T01:38:25.579Z,38
2019-02-06T01:38:37.136Z,43
2019-02-06T01:38:56.514Z,41
2019-02-06T01:39:16.567Z,40
2019-02-06T01:39:27.445Z,44
2019-02-06T01:39:36.580Z,41
2019-02-06T01:39:46.886Z,38
2019-02-06T01:39:55.808Z,37
2019-02-06T01:40:06.700Z,39
2019-02-06T01:40:28.515Z,35
2019-02-06T01:40:35.922Z,36
2019-02-06T01:41:06.921Z,37
2019-02-06T01:41:16.061Z,36
2019-02-06T01:41:26.974Z,33
2019-02-06T01:41:37.513Z,35
2019-02-06T01:41:57.049Z,33
2019-02-06T01:42:17.250Z,31
2019-02-06T01:42:29.146Z,33
2019-02-06T01:42:38.826Z,38
2019-02-06T01:42:47.205Z,36
2019-02-06T01:42:56.373Z,37
2019-02-06T01:43:06.368Z,35
2019-02-06T01:43:27.331Z,33
2019-02-06T01:43:37.301Z,36
2019-02-06T01:43:59.085Z,34
2019-02-06T01:44:09.136Z,33
2019-02-06T01:44:26.640Z,37
2019-02-06T01:44:36.621Z,36
2019-02-06T01:44:47.576Z,34
2019-02-06T01:45:06.725Z,36
2019-02-06T01:45:17.660Z,33
2019-02-06T01:45:26.820Z,32
2019-02-06T01:45:46.893Z,33
2019-02-06T01:45:57.771Z,36
2019-02-06T01:46:07.819Z,39
2019-02-06T01:46:27.034Z,37
2019-02-06T01:46:38.105Z,35
2019-02-06T01:46:47.935Z,36
2019-02-06T01:46:57.093Z,35
2019-02-06T01:47:07.994Z,33
2019-02-06T01:47:29.832Z,34
2019-02-06T01:47:38.951Z,33
2019-02-06T01:48:19.907Z,39
2019-02-06T01:48:28.244Z,38
2019-02-06T01:48:38.214Z,36
2019-02-06T01:48:48.344Z,33
2019-02-06T01:49:07.469Z,35
2019-02-06T01:50:08.727Z,36
2019-02-06T01:50:17.726Z,35
2019-02-06T01:50:28.583Z,33
2019-02-06T01:50:39.523Z,36
2019-02-06T01:50:47.787Z,35
2019-02-06T01:50:58.696Z,33
2019-02-06T01:51:09.606Z,29
2019-02-06T01:51:37.925Z,33
2019-02-06T01:51:48.827Z,36
2019-02-06T01:52:18.030Z,35
2019-02-06T01:52:38.909Z,32
2019-02-06T01:52:59.845Z,33
2019-02-06T01:53:09.244Z,32
2019-02-06T01:53:18.349Z,30
2019-02-06T01:53:29.022Z,31
2019-02-06T01:53:39.097Z,38
2019-02-06T01:53:48.301Z,39
2019-02-06T01:53:59.185Z,35
2019-02-06T01:54:09.172Z,34
2019-02-06T01:54:18.360Z,33
2019-02-06T01:54:39.602Z,34
2019-02-06T01:54:49.369Z,38
2019-02-06T01:55:00.231Z,35
2019-02-06T01:55:09.385Z,34
2019-02-06T01:55:19.413Z,33
2019-02-06T01:55:29.443Z,36
2019-02-06T01:55:39.474Z,35
2019-02-06T01:55:58.671Z,33
2019-02-06T01:56:29.604Z,34
2019-02-06T01:56:40.547Z,35
2019-02-06T01:57:00.030Z,33
2019-02-06T01:57:08.855Z,32
2019-02-06T01:57:19.795Z,31
2019-02-06T01:57:28.936Z,30
2019-02-06T01:57:39.751Z,32
2019-02-06T01:57:48.974Z,33
2019-02-06T01:57:59.010Z,31
2019-02-06T01:58:11.050Z,28
2019-02-06T01:58:19.087Z,31
2019-02-06T01:58:32.526Z,33
2019-02-06T01:58:39.120Z,35
2019-02-06T01:58:49.180Z,34
2019-02-06T01:59:20.426Z,33
2019-02-06T01:59:50.298Z,32
2019-02-06T02:00:00.229Z,36
2019-02-06T02:00:09.341Z,35
2019-02-06T02:00:30.586Z,33
2019-02-06T02:00:50.343Z,31
2019-02-06T02:01:00.409Z,32
2019-02-06T02:01:11.231Z,36
2019-02-06T02:01:20.388Z,34
2019-02-06T02:01:30.482Z,32
2019-02-06T02:01:39.651Z,31
2019-02-06T02:01:49.628Z,32
2019-02-06T02:02:00.636Z,33
2019-02-06T02:02:10.597Z,35
2019-02-06T02:02:19.746Z,33
2019-02-06T02:02:32.342Z,31
2019-02-06T02:02:41.474Z,33
2019-02-06T02:02:50.745Z,36
2019-02-06T02:03:01.650Z,33
2019-02-06T02:03:09.945Z,34
2019-02-06T02:03:20.922Z,33
2019-02-06T02:03:30.001Z,32
2019-02-06T02:03:51.702Z,31
2019-02-06T02:04:02.668Z,32
2019-02-06T02:04:12.095Z,31
2019-02-06T02:04:22.785Z,29
2019-02-06T02:04:30.208Z,28
2019-02-06T02:04:41.137Z,30
2019-02-06T02:04:51.109Z,32
2019-02-06T02:05:01.549Z,33
2019-02-06T02:05:10.306Z,34
2019-02-06T02:06:02.887Z,33
2019-02-06T02:06:10.492Z,35
2019-02-06T02:06:20.458Z,33
2019-02-06T02:07:01.466Z,32
2019-02-06T02:07:21.802Z,33
2019-02-06T02:07:31.621Z,30
2019-02-06T02:07:41.636Z,32
2019-02-06T02:07:51.620Z,35
2019-02-06T02:08:01.671Z,36
2019-02-06T02:08:11.697Z,35
2019-02-06T02:08:21.676Z,34
2019-02-06T02:08:32.088Z,35
2019-02-06T02:08:51.811Z,38
2019-02-06T02:09:02.752Z,37
2019-02-06T02:09:31.988Z,34
2019-02-06T02:09:41.138Z,33
2019-02-06T02:10:02.023Z,31
2019-02-06T02:10:12.066Z,30
2019-02-06T02:10:32.106Z,31
2019-02-06T02:10:42.129Z,30
2019-02-06T02:10:52.317Z,32
2019-02-06T02:11:11.375Z,31
2019-02-06T02:12:01.505Z,34
2019-02-06T02:12:22.630Z,32
2019-02-06T02:12:31.612Z,33
2019-02-06T02:12:51.609Z,34
2019-02-06T02:13:04.201Z,32
2019-02-06T02:13:22.869Z,35
2019-02-06T02:13:31.788Z,34
2019-02-06T02:13:44.334Z,32
2019-02-06T02:13:54.335Z,30
2019-02-06T02:14:01.886Z,31
2019-02-06T02:14:12.846Z,29
2019-02-06T02:14:22.754Z,31
2019-02-06T02:14:41.991Z,32
2019-02-06T02:14:53.692Z,33
2019-02-06T02:15:22.048Z,34
2019-02-06T02:15:32.980Z,32
2019-02-06T02:15:42.154Z,34
2019-02-06T02:15:53.049Z,33
2019-02-06T02:16:02.202Z,35
2019-02-06T02:16:13.102Z,31
2019-02-06T02:16:23.109Z,30
2019-02-06T02:16:32.317Z,29
2019-02-06T02:16:43.203Z,32
2019-02-06T02:16:54.019Z,33
2019-02-06T02:17:04.146Z,32
2019-02-06T02:17:13.270Z,31
2019-02-06T02:17:24.186Z,30
2019-02-06T02:17:52.478Z,31
2019-02-06T02:18:02.593Z,33
2019-02-06T02:18:12.584Z,34
2019-02-06T02:18:32.674Z,33
2019-02-06T02:18:42.671Z,32
2019-02-06T02:18:52.664Z,30
2019-02-06T02:19:02.735Z,32
2019-02-06T02:19:14.507Z,29
2019-02-06T02:19:23.599Z,30
2019-02-06T02:19:33.697Z,29
2019-02-06T02:19:52.819Z,32
2019-02-06T02:20:43.043Z,35
2019-02-06T02:21:03.086Z,34
2019-02-06T02:21:13.159Z,33
2019-02-06T02:21:26.907Z,31
2019-02-06T02:21:34.003Z,32
2019-02-06T02:21:43.205Z,34
2019-02-06T02:22:03.261Z,32
2019-02-06T02:22:14.174Z,31
2019-02-06T02:22:23.249Z,32
2019-02-06T02:22:34.214Z,33
2019-02-06T02:22:43.384Z,35
2019-02-06T02:22:53.396Z,34
2019-02-06T02:23:04.427Z,35
2019-02-06T02:23:23.445Z,34
2019-02-06T02:23:35.272Z,32
2019-02-06T02:24:04.439Z,35
2019-02-06T02:24:14.528Z,36
2019-02-06T02:24:34.575Z,34
2019-02-06T02:24:53.717Z,35
2019-02-06T02:25:05.121Z,33
2019-02-06T02:25:25.530Z,32
2019-02-06T02:25:34.780Z,34
2019-02-06T02:26:04.849Z,32
2019-02-06T02:26:14.843Z,31
2019-02-06T02:26:24.813Z,33
2019-02-06T02:26:44.053Z,32
2019-02-06T02:26:56.526Z,31
2019-02-06T02:27:05.033Z,33
2019-02-06T02:27:15.020Z,32
2019-02-06T02:27:35.941Z,36
2019-02-06T02:27:46.034Z,35
2019-02-06T02:27:54.225Z,33
2019-02-06T02:28:15.967Z,35
2019-02-06T02:28:26.030Z,36
2019-02-06T02:28:35.285Z,35
2019-02-06T02:28:54.402Z,34
2019-02-06T02:29:05.378Z,35
2019-02-06T02:29:15.533Z,37
2019-02-06T02:29:25.374Z,38
2019-02-06T02:29:35.410Z,35
2019-02-06T02:29:55.496Z,34
2019-02-06T02:30:05.528Z,36
2019-02-06T02:30:25.807Z,34
2019-02-06T02:30:37.413Z,40
2019-02-06T02:30:47.463Z,38
2019-02-06T02:30:55.684Z,36
2019-02-06T02:31:17.503Z,35
2019-02-06T02:31:26.652Z,34
2019-02-06T02:31:36.655Z,33
2019-02-06T02:31:45.000Z,32
2019-02-06T02:31:55.800Z,35
2019-02-06T02:32:05.913Z,36
2019-02-06T02:32:15.922Z,37
2019-02-06T02:32:25.918Z,35
2019-02-06T02:32:35.152Z,33
2019-02-06T02:32:57.699Z,36
2019-02-06T02:33:06.054Z,34
2019-02-06T02:33:16.123Z,36
2019-02-06T02:33:26.155Z,37
2019-02-06T02:33:36.190Z,35
2019-02-06T02:33:46.156Z,33
2019-02-06T02:33:56.268Z,32
2019-02-06T02:34:15.393Z,33
2019-02-06T02:34:37.989Z,32
2019-02-06T02:34:46.313Z,37
2019-02-06T02:34:56.750Z,34
2019-02-06T02:35:05.522Z,32
2019-02-06T02:35:16.494Z,31
2019-02-06T02:35:26.518Z,32
2019-02-06T02:35:35.612Z,33
2019-02-06T02:35:56.524Z,34
2019-02-06T02:36:18.504Z,33
2019-02-06T02:36:20.296Z,34
2019-02-06T02:36:25.706Z,32
2019-02-06T02:36:46.100Z,31
2019-02-06T02:36:58.402Z,30
2019-02-06T02:37:15.893Z,31
2019-02-06T02:37:25.891Z,33
2019-02-06T02:37:36.818Z,37
2019-02-06T02:37:45.975Z,35
2019-02-06T02:37:56.839Z,33
2019-02-06T02:38:16.961Z,35
2019-02-06T02:38:37.874Z,34
2019-02-06T02:38:47.005Z,32
2019-02-06T02:38:56.150Z,33
2019-02-06T02:39:07.974Z,35
2019-02-06T02:39:17.901Z,33
2019-02-06T02:39:27.977Z,32
2019-02-06T02:39:37.916Z,30
2019-02-06T02:39:48.094Z,31
2019-02-06T02:39:57.184Z,32
2019-02-06T02:40:07.259Z,33
2019-02-06T02:40:26.394Z,32
2019-02-06T02:40:47.412Z,34
2019-02-06T02:40:57.333Z,33
2019-02-06T02:41:07.371Z,32
2019-02-06T02:41:37.433Z,33
2019-02-06T02:41:57.571Z,32
2019-02-06T02:42:07.563Z,30
2019-02-06T02:42:17.637Z,32
2019-02-06T02:42:26.752Z,31
2019-02-06T02:42:46.864Z,32
2019-02-06T02:42:58.034Z,34
2019-02-06T02:43:08.582Z,32
2019-02-06T02:43:16.918Z,33
2019-02-06T02:43:26.965Z,31
2019-02-06T02:43:38.550Z,30
2019-02-06T02:43:47.037Z,29
2019-02-06T02:43:57.047Z,30
2019-02-06T02:44:09.543Z,31
2019-02-06T02:44:28.852Z,33
2019-02-06T02:44:58.905Z,32
2019-02-06T02:45:08.081Z,34
2019-02-06T02:45:18.417Z,33
2019-02-06T02:45:28.126Z,32
2019-02-06T02:45:39.123Z,34
2019-02-06T02:45:47.367Z,33
2019-02-06T02:46:08.261Z,31
2019-02-06T02:46:18.303Z,33
2019-02-06T02:46:28.640Z,32
2019-02-06T02:47:00.129Z,33
2019-02-06T02:47:09.277Z,35
2019-02-06T02:48:43.235Z,33
2019-02-06T02:48:53.836Z,32
2019-02-06T02:49:03.005Z,34
2019-02-06T02:49:13.114Z,35
2019-02-06T02:49:31.397Z,38
2019-02-06T02:49:42.205Z,36
2019-02-06T02:49:53.790Z,35
2019-02-06T02:50:02.308Z,33
2019-02-06T02:50:13.264Z,32
2019-02-06T02:50:22.434Z,38
2019-02-06T02:50:32.368Z,37
2019-02-06T02:50:42.514Z,35
2019-02-06T02:51:02.819Z,36
2019-02-06T02:51:12.670Z,35
2019-02-06T02:51:23.411Z,34
2019-02-06T02:51:31.719Z,32
2019-02-06T02:51:51.840Z,33
2019-02-06T02:52:15.067Z,32
2019-02-06T02:52:23.064Z,34
2019-02-06T02:52:42.828Z,36
2019-02-06T02:52:52.855Z,35
2019-02-06T02:53:12.111Z,34
2019-02-06T02:53:32.959Z,33
2019-02-06T02:54:12.251Z,32
2019-02-06T02:54:22.301Z,33
2019-02-06T02:54:33.358Z,35
2019-02-06T02:54:42.344Z,34
2019-02-06T02:54:53.260Z,33
2019-02-06T02:55:03.228Z,36
2019-02-06T02:55:13.306Z,37
2019-02-06T02:55:23.289Z,34
2019-02-06T02:55:32.690Z,33
2019-02-06T02:55:53.382Z,36
2019-02-06T02:56:03.407Z,35
2019-02-06T02:56:14.353Z,32
2019-02-06T02:56:43.596Z,33
2019-02-06T02:56:53.589Z,34
2019-02-06T02:57:03.581Z,37
2019-02-06T02:57:15.326Z,36
2019-02-06T02:57:25.372Z,35
2019-02-06T02:57:43.746Z,32
2019-02-06T02:57:54.542Z,31
2019-02-06T02:58:12.972Z,32
2019-02-06T02:58:23.879Z,33
2019-02-06T02:58:33.048Z,35
2019-02-06T02:58:43.976Z,33
2019-02-06T02:58:53.147Z,35
2019-02-06T02:59:04.424Z,36
2019-02-06T02:59:23.211Z,35
2019-02-06T02:59:34.042Z,34
2019-02-06T02:59:44.097Z,35
2019-02-06T02:59:53.324Z,36
2019-02-06T03:00:07.919Z,34
2019-02-06T03:00:18.022Z,35
2019-02-06T03:00:27.158Z,36
2019-02-06T03:00:37.209Z,35
2019-02-06T03:00:47.162Z,36
2019-02-06T03:01:08.143Z,33
2019-02-06T03:01:38.301Z,35
2019-02-06T03:02:09.195Z,36
2019-02-06T03:02:28.407Z,35
2019-02-06T03:02:38.410Z,32
2019-02-06T03:02:48.428Z,37
2019-02-06T03:02:58.511Z,38
2019-02-06T03:03:08.487Z,36
2019-02-06T03:03:17.672Z,33
2019-02-06T03:03:27.718Z,36
2019-02-06T03:03:38.632Z,37
2019-02-06T03:03:47.739Z,35
2019-02-06T03:04:19.516Z,36
2019-02-06T03:04:28.733Z,35
2019-02-06T03:04:38.755Z,34
2019-02-06T03:04:50.104Z,37
2019-02-06T03:04:57.940Z,35
2019-02-06T03:05:17.947Z,36
2019-02-06T03:05:28.981Z,38
2019-02-06T03:05:38.101Z,36
2019-02-06T03:05:48.070Z,38
2019-02-06T03:05:59.333Z,40
2019-02-06T03:06:09.078Z,36
2019-02-06T03:06:29.180Z,35
2019-02-06T03:06:39.206Z,39
2019-02-06T03:06:49.139Z,37
2019-02-06T03:07:09.238Z,34
2019-02-06T03:07:18.343Z,32
2019-02-06T03:07:30.960Z,35
2019-02-06T03:07:40.166Z,36
2019-02-06T03:07:49.307Z,37
2019-02-06T03:08:11.714Z,34
2019-02-06T03:08:40.422Z,36
2019-02-06T03:08:49.510Z,34
2019-02-06T03:09:08.961Z,33
2019-02-06T03:09:19.603Z,35
2019-02-06T03:09:39.730Z,36
2019-02-06T03:09:50.550Z,35
2019-02-06T03:10:00.768Z,36
2019-02-06T03:10:18.965Z,35
2019-02-06T03:10:30.853Z,34
2019-02-06T03:10:39.039Z,35
2019-02-06T03:10:49.877Z,37
2019-02-06T03:10:59.107Z,36
2019-02-06T03:11:09.121Z,38
2019-02-06T03:11:29.180Z,36
2019-02-06T03:12:09.304Z,35
2019-02-06T03:12:20.810Z,36
2019-02-06T03:12:30.269Z,37
2019-02-06T03:12:49.400Z,36
2019-02-06T03:13:09.534Z,35
2019-02-06T03:13:20.327Z,32
2019-02-06T03:13:30.434Z,36
2019-02-06T03:13:41.270Z,37
2019-02-06T03:13:49.543Z,36
2019-02-06T03:14:00.887Z,35
2019-02-06T03:14:09.668Z,36
2019-02-06T03:14:20.524Z,38
2019-02-06T03:14:29.712Z,39
2019-02-06T03:14:50.573Z,38
2019-02-06T03:15:00.632Z,36
2019-02-06T03:15:11.054Z,39
2019-02-06T03:15:19.823Z,38
2019-02-06T03:15:40.785Z,39
2019-02-06T03:15:49.903Z,38
2019-02-06T03:16:21.271Z,40
2019-02-06T03:16:31.118Z,39
2019-02-06T03:16:40.983Z,37
2019-02-06T03:16:50.050Z,36
2019-02-06T03:17:03.117Z,39
2019-02-06T03:17:11.070Z,37